Time;durP1;ratioP1;P1;durP2;ratioP2;P2;SDS_P1;SDS_P2;PMS_P1;PMS_P2;Temp;Humidity;BMP_temperature;BMP_pressure;BME280_temperature;BME280_humidity;BME280_pressure;Samples;Min_cycle;Max_cycle;Signal;HPM_P1;HPM_P2
2022/08/03 00:00:25;;;;;;;3.88;3.45;;;18.00;99.90;;;;;;5250428;28;20507;-72
2022/08/03 00:02:55;;;;;;;4.25;3.45;;;18.00;99.90;;;;;;5250405;28;20460;-70
2022/08/03 00:05:26;;;;;;;4.70;3.50;;;18.00;99.90;;;;;;5250421;28;20090;-71
2022/08/03 00:07:57;;;;;;;3.70;3.25;;;18.10;99.90;;;;;;5249981;28;20039;-70
2022/08/03 00:10:29;;;;;;;4.43;3.53;;;18.00;99.90;;;;;;5250148;28;20044;-70
2022/08/03 00:12:59;;;;;;;4.15;3.58;;;18.10;99.90;;;;;;5250164;28;20056;-70
2022/08/03 00:15:30;;;;;;;4.43;3.85;;;18.20;99.90;;;;;;5250071;28;20514;-70
2022/08/03 00:18:01;;;;;;;3.88;2.97;;;18.00;99.90;;;;;;5249616;28;20111;-70
2022/08/03 00:20:32;;;;;;;4.40;3.50;;;18.40;99.90;;;;;;5248800;28;20661;-69
2022/08/03 00:23:03;;;;;;;4.15;3.33;;;18.40;99.90;;;;;;5250148;28;20391;-70
2022/08/03 00:25:35;;;;;;;5.07;3.40;;;18.40;99.90;;;;;;5249850;28;20094;-70
2022/08/03 00:28:06;;;;;;;3.90;3.35;;;18.30;99.90;;;;;;5249655;28;20086;-70
2022/08/03 00:30:37;;;;;;;6.75;3.38;;;18.10;99.90;;;;;;5249942;28;20460;-70
2022/08/03 00:33:09;;;;;;;3.58;3.28;;;18.20;99.90;;;;;;5249815;28;20033;-69
2022/08/03 00:35:40;;;;;;;4.18;3.40;;;18.50;99.90;;;;;;5249681;28;20117;-70
2022/08/03 00:38:11;;;;;;;3.83;3.17;;;18.10;99.90;;;;;;5249713;28;20017;-70
2022/08/03 00:40:41;;;;;;;4.47;3.88;;;18.20;99.90;;;;;;5249801;28;20025;-70
2022/08/03 00:43:12;;;;;;;4.57;3.63;;;18.40;99.90;;;;;;5249730;28;20025;-69
2022/08/03 00:45:43;;;;;;;3.70;3.33;;;18.30;99.90;;;;;;5249805;28;20353;-70
2022/08/03 00:48:14;;;;;;;3.65;3.22;;;18.30;99.90;;;;;;5249459;28;20361;-71
2022/08/03 00:50:46;;;;;;;3.92;3.20;;;18.20;99.90;;;;;;5249585;28;20060;-71
2022/08/03 00:53:17;;;;;;;3.70;3.20;;;18.40;99.90;;;;;;5249610;28;20062;-69
2022/08/03 00:55:48;;;;;;;6.68;4.05;;;18.30;99.90;;;;;;5249578;28;20024;-69
2022/08/03 00:58:19;;;;;;;3.90;3.20;;;18.30;99.90;;;;;;5249547;28;20028;-69
2022/08/03 01:00:50;;;;;;;4.82;3.33;;;18.20;99.90;;;;;;5249615;28;20117;-70
2022/08/03 01:03:21;;;;;;;4.35;3.75;;;18.10;99.90;;;;;;5249497;28;20075;-70
2022/08/03 01:06:03;;;;;;;4.10;3.53;;;18.10;99.90;;;;;;5249471;28;20025;-70
2022/08/03 01:08:47;;;;;;;4.10;3.15;;;18.30;99.90;;;;;;5249224;28;20033;-75
2022/08/03 01:11:33;;;;;;;4.72;3.70;;;18.00;99.90;;;;;;5249132;28;20437;-70
2022/08/03 01:14:26;;;;;;;4.93;3.53;;;18.30;99.90;;;;;;5249102;28;20099;-70
2022/08/03 01:17:03;;;;;;;5.03;3.97;;;18.30;99.90;;;;;;5248833;28;20063;-70
2022/08/03 01:19:52;;;;;;;4.70;3.38;;;18.30;99.90;;;;;;5248690;28;20075;-71
2022/08/03 01:22:48;;;;;;;4.45;4.00;;;18.00;99.90;;;;;;5249086;28;20028;-70
2022/08/03 01:25:40;;;;;;;5.85;4.20;;;18.00;99.90;;;;;;5248870;28;20333;-69
2022/08/03 01:28:30;;;;;;;4.32;3.90;;;18.30;99.90;;;;;;5248545;28;20028;-70
2022/08/03 01:31:07;;;;;;;4.63;3.65;;;18.30;99.90;;;;;;5248632;28;20024;-72
2022/08/03 01:33:45;;;;;;;2.95;2.67;;;18.30;99.90;;;;;;5248542;28;20035;-70
2022/08/03 01:36:21;;;;;;;3.65;2.85;;;18.20;99.90;;;;;;5248578;28;20060;-69
2022/08/03 01:38:59;;;;;;;3.25;2.88;;;18.30;99.90;;;;;;5248589;28;20059;-70
2022/08/03 01:41:33;;;;;;;3.60;3.05;;;18.40;99.90;;;;;;5248352;28;20017;-70
2022/08/03 01:44:09;;;;;;;3.13;2.72;;;18.30;99.90;;;;;;5248350;28;20028;-70
2022/08/03 01:46:40;;;;;;;3.60;3.03;;;18.50;99.90;;;;;;5248315;28;20420;-70
2022/08/03 01:49:12;;;;;;;3.45;3.10;;;18.30;99.90;;;;;;5247888;28;20033;-69
2022/08/03 01:51:46;;;;;;;2.90;2.42;;;18.60;99.90;;;;;;5248037;28;20028;-71
2022/08/03 01:54:19;;;;;;;4.07;2.95;;;18.80;99.90;;;;;;5248026;28;20361;-70
2022/08/03 01:56:53;;;;;;;3.25;2.85;;;18.60;99.90;;;;;;5247973;28;20077;-71
2022/08/03 01:59:25;;;;;;;3.40;2.80;;;18.70;99.90;;;;;;5247982;28;20025;-69
2022/08/03 02:01:57;;;;;;;3.25;2.88;;;18.50;99.90;;;;;;5247861;28;20032;-70
2022/08/03 02:04:29;;;;;;;3.55;3.15;;;18.70;99.90;;;;;;5247845;28;20509;-71
2022/08/03 02:07:01;;;;;;;3.38;2.90;;;18.70;99.90;;;;;;5247761;28;20051;-70
2022/08/03 02:09:33;;;;;;;4.80;2.83;;;18.90;99.90;;;;;;5247633;28;20029;-70
2022/08/03 02:12:10;;;;;;;4.00;2.90;;;18.80;99.90;;;;;;5247748;28;20028;-70
2022/08/03 02:14:43;;;;;;;3.05;2.65;;;18.90;99.90;;;;;;5247687;28;20032;-70
2022/08/03 02:17:15;;;;;;;3.50;3.10;;;18.80;99.90;;;;;;5247278;28;20060;-70
2022/08/03 02:19:47;;;;;;;3.35;3.03;;;18.80;99.90;;;;;;5247486;28;20079;-70
2022/08/03 02:22:18;;;;;;;3.95;3.13;;;18.60;99.90;;;;;;5247529;28;20032;-70
2022/08/03 02:24:50;;;;;;;3.60;3.00;;;18.40;99.90;;;;;;5247571;28;20021;-70
2022/08/03 02:27:24;;;;;;;3.35;2.70;;;18.60;99.90;;;;;;5247352;28;20056;-70
2022/08/03 02:30:04;;;;;;;3.78;3.05;;;18.60;99.90;;;;;;5247333;28;20058;-70
2022/08/03 02:32:37;;;;;;;4.05;3.00;;;18.50;99.90;;;;;;5247465;28;20043;-69
2022/08/03 02:35:12;;;;;;;4.20;3.30;;;18.40;99.90;;;;;;5247379;28;20025;-70
2022/08/03 02:37:46;;;;;;;3.72;3.25;;;18.40;99.90;;;;;;5247405;28;20105;-70
2022/08/03 02:40:19;;;;;;;4.13;2.78;;;18.20;99.90;;;;;;5247464;28;20036;-70
2022/08/03 02:42:53;;;;;;;3.45;2.83;;;18.40;99.90;;;;;;5247339;28;20111;-70
2022/08/03 02:45:26;;;;;;;3.53;3.00;;;18.60;99.90;;;;;;5247329;28;20032;-70
2022/08/03 02:48:01;;;;;;;3.70;3.08;;;18.60;99.90;;;;;;5246944;28;20047;-72
2022/08/03 02:50:33;;;;;;;4.30;3.17;;;18.50;99.90;;;;;;5247490;28;20028;-69
2022/08/03 02:53:05;;;;;;;3.40;3.03;;;18.60;99.90;;;;;;5247237;28;20012;-70
2022/08/03 02:55:38;;;;;;;3.78;3.30;;;18.70;99.90;;;;;;5247333;28;20466;-69
2022/08/03 02:58:10;;;;;;;3.65;2.95;;;18.60;99.90;;;;;;5247301;28;20023;-70
2022/08/03 03:00:43;;;;;;;4.05;3.40;;;18.50;99.90;;;;;;5247435;28;20075;-70
2022/08/03 03:03:15;;;;;;;3.42;2.67;;;18.60;99.90;;;;;;5247524;28;20020;-71
2022/08/03 03:05:46;;;;;;;3.17;2.70;;;18.60;99.90;;;;;;5247579;28;20021;-70
2022/08/03 03:08:19;;;;;;;3.58;2.53;;;18.60;99.90;;;;;;5247264;28;20070;-70
2022/08/03 03:10:51;;;;;;;4.10;2.60;;;18.60;99.90;;;;;;5247431;28;20044;-69
2022/08/03 03:13:22;;;;;;;3.05;2.72;;;18.60;99.90;;;;;;5247408;28;20032;-69
2022/08/03 03:15:55;;;;;;;4.07;3.28;;;18.60;99.90;;;;;;5247208;28;20115;-69
2022/08/03 03:18:31;;;;;;;3.83;3.25;;;18.60;99.90;;;;;;5246726;28;20036;-70
2022/08/03 03:21:03;;;;;;;3.90;3.08;;;18.80;99.90;;;;;;5247144;28;20437;-70
2022/08/03 03:23:37;;;;;;;3.97;3.58;;;18.80;99.90;;;;;;5246926;28;20028;-70
2022/08/03 03:26:08;;;;;;;4.07;2.85;;;18.90;99.90;;;;;;5246928;28;20054;-69
2022/08/03 03:28:39;;;;;;;5.05;3.10;;;18.70;99.90;;;;;;5247619;28;20028;-70
2022/08/03 03:31:10;;;;;;;3.90;3.33;;;18.80;99.90;;;;;;5251047;28;20024;-70
2022/08/03 03:33:41;;;;;;;3.75;3.15;;;18.90;99.90;;;;;;5250995;28;20059;-70
2022/08/03 03:36:12;;;;;;;4.03;3.20;;;18.90;99.90;;;;;;5250883;28;20039;-69
2022/08/03 03:38:42;;;;;;;3.63;3.17;;;19.00;99.90;;;;;;5250861;28;20364;-70
2022/08/03 03:41:14;;;;;;;3.85;3.17;;;19.20;99.90;;;;;;5250742;28;20017;-70
2022/08/03 03:43:45;;;;;;;3.90;3.33;;;19.30;99.90;;;;;;5250703;28;20029;-70
2022/08/03 03:46:16;;;;;;;3.47;3.17;;;19.20;99.90;;;;;;5250615;28;20443;-70
2022/08/03 03:48:47;;;;;;;4.40;3.55;;;19.40;99.90;;;;;;5250321;28;20064;-70
2022/08/03 03:51:18;;;;;;;4.15;3.75;;;19.50;99.90;;;;;;5250613;28;20024;-71
2022/08/03 03:54:01;;;;;;;4.93;3.58;;;19.40;99.90;;;;;;5250556;28;20044;-70
2022/08/03 03:56:31;;;;;;;5.35;4.10;;;19.40;99.90;;;;;;5250340;28;20078;-70
2022/08/03 03:59:02;;;;;;;4.60;3.97;;;19.60;99.90;;;;;;5250354;28;20418;-70
2022/08/03 04:01:33;;;;;;;4.15;3.75;;;19.80;99.90;;;;;;5250311;28;20491;-70
2022/08/03 04:12:36;;;;;;;4.07;3.65;;;20.00;99.90;;;;;;5250220;28;20035;-70
2022/08/03 04:15:08;;;;;;;4.80;4.10;;;20.10;99.90;;;;;;5250044;28;20028;-70
2022/08/03 04:17:41;;;;;;;5.75;3.80;;;20.20;99.90;;;;;;5249729;28;20075;-71
2022/08/03 04:20:12;;;;;;;4.53;3.67;;;20.30;99.90;;;;;;5249922;28;20059;-71
2022/08/03 04:22:44;;;;;;;5.07;4.38;;;20.30;99.90;;;;;;5249877;28;20063;-71
2022/08/03 04:25:18;;;;;;;5.60;4.75;;;20.40;99.90;;;;;;5249837;28;20468;-70
2022/08/03 04:27:55;;;;;;;4.90;4.40;;;20.50;99.90;;;;;;5249680;28;20044;-70
2022/08/03 04:30:28;;;;;;;5.55;4.30;;;20.60;99.90;;;;;;5249951;28;20104;-70
2022/08/03 04:33:00;;;;;;;5.45;4.60;;;20.90;99.90;;;;;;5249724;28;20037;-71
2022/08/03 04:35:35;;;;;;;6.45;5.18;;;21.10;99.90;;;;;;5249743;28;20021;-70
2022/08/03 04:38:07;;;;;;;6.60;5.82;;;21.40;99.90;;;;;;5249608;28;20031;-71
2022/08/03 04:40:41;;;;;;;7.57;6.15;;;21.70;99.90;;;;;;5247996;28;20032;-71
2022/08/03 04:43:13;;;;;;;7.60;6.28;;;21.90;99.90;;;;;;5249555;28;20025;-70
2022/08/03 04:45:46;;;;;;;7.70;6.57;;;22.20;99.90;;;;;;5249541;28;20104;-70
2022/08/03 04:48:18;;;;;;;6.60;4.97;;;22.40;99.90;;;;;;5249118;28;20043;-71
2022/08/03 04:50:49;;;;;;;7.82;5.90;;;22.60;99.90;;;;;;5249548;28;20547;-71
2022/08/03 04:53:21;;;;;;;7.50;4.93;;;23.00;99.90;;;;;;5249286;28;20621;-71
2022/08/03 04:55:52;;;;;;;5.07;4.18;;;23.20;99.90;;;;;;5249382;28;20032;-71
2022/08/03 04:58:22;;;;;;;5.63;4.63;;;23.30;99.90;;;;;;5249249;28;20036;-71
2022/08/03 05:00:53;;;;;;;4.88;4.38;;;23.40;99.90;;;;;;5249203;28;20082;-71
2022/08/03 05:03:24;;;;;;;4.60;4.05;;;23.70;99.90;;;;;;5249194;28;20372;-71
2022/08/03 05:05:55;;;;;;;4.60;3.47;;;23.90;99.90;;;;;;5249033;28;20016;-71
2022/08/03 05:08:26;;;;;;;4.63;3.63;;;24.10;99.90;;;;;;5248753;28;20119;-72
2022/08/03 05:10:57;;;;;;;3.28;2.97;;;24.30;99.90;;;;;;5248918;28;20095;-70
2022/08/03 05:13:28;;;;;;;3.45;3.10;;;24.70;99.90;;;;;;5249023;28;20036;-71
2022/08/03 05:15:58;;;;;;;4.43;3.42;;;24.70;99.90;;;;;;5248913;28;20025;-70
2022/08/03 05:18:29;;;;;;;4.68;3.63;;;24.60;99.90;;;;;;5248315;28;20458;-71
2022/08/03 05:21:00;;;;;;;3.45;2.72;;;24.60;99.90;;;;;;5248722;28;20043;-71
2022/08/03 05:23:31;;;;;;;4.22;3.40;;;24.30;99.90;;;;;;5248654;28;20052;-71
2022/08/03 05:26:02;;;;;;;3.55;3.20;;;24.30;99.90;;;;;;5248696;28;20043;-70
2022/08/03 05:28:33;;;;;;;3.55;3.03;;;24.30;99.90;;;;;;5248558;28;20724;-71
2022/08/03 05:31:04;;;;;;;3.88;3.03;;;24.50;99.90;;;;;;5248443;28;20031;-70
2022/08/03 05:33:35;;;;;;;4.25;2.97;;;24.60;99.90;;;;;;5248379;28;20024;-73
2022/08/03 05:36:06;;;;;;;3.90;2.97;;;24.60;99.90;;;;;;5248455;28;20021;-70
2022/08/03 05:38:36;;;;;;;4.20;2.70;;;24.50;99.90;;;;;;5248397;28;20043;-70
2022/08/03 05:41:07;;;;;;;3.95;2.90;;;24.40;99.90;;;;;;5248477;28;20025;-70
2022/08/03 05:43:38;;;;;;;4.88;4.00;;;24.70;99.90;;;;;;5248349;28;20021;-70
2022/08/03 05:46:09;;;;;;;2.92;2.47;;;25.00;99.90;;;;;;5248277;28;20078;-70
2022/08/03 05:48:41;;;;;;;3.65;2.53;;;25.30;99.90;;;;;;5248191;28;20032;-70
2022/08/03 05:51:12;;;;;;;4.38;2.70;;;25.10;99.90;;;;;;5248024;28;20050;-70
2022/08/03 05:53:43;;;;;;;2.97;2.50;;;25.20;99.90;;;;;;5248478;28;20494;-70
2022/08/03 05:56:14;;;;;;;2.22;2.03;;;25.60;99.90;;;;;;5248627;28;20025;-70
2022/08/03 05:58:45;;;;;;;2.55;2.15;;;25.70;99.90;;;;;;5248276;28;20035;-71
2022/08/03 06:01:17;;;;;;;5.22;3.38;;;25.30;99.90;;;;;;5248304;28;20020;-71
2022/08/03 06:03:49;;;;;;;5.65;2.90;;;25.00;99.90;;;;;;5248003;28;20031;-70
2022/08/03 06:06:20;;;;;;;3.40;3.00;;;25.00;99.90;;;;;;5247821;28;20040;-71
2022/08/03 06:08:51;;;;;;;8.30;2.78;;;25.00;99.90;;;;;;5247825;28;20043;-70
2022/08/03 06:11:23;;;;;;;4.60;3.38;;;24.80;99.90;;;;;;5247867;28;20476;-72
2022/08/03 06:13:54;;;;;;;3.60;3.00;;;24.70;99.90;;;;;;5247816;28;20086;-71
2022/08/03 06:16:25;;;;;;;3.95;3.03;;;24.80;99.90;;;;;;5247845;28;20024;-70
2022/08/03 06:18:56;;;;;;;3.92;3.10;;;24.90;99.90;;;;;;5247484;28;20403;-71
2022/08/03 06:21:26;;;;;;;4.40;3.22;;;25.00;99.90;;;;;;5247683;28;20025;-71
2022/08/03 06:23:57;;;;;;;3.55;2.78;;;25.50;99.90;;;;;;5247607;28;20024;-71
2022/08/03 06:26:28;;;;;;;3.53;2.72;;;25.40;99.90;;;;;;5247521;28;20087;-70
2022/08/03 06:28:59;;;;;;;3.75;2.70;;;25.30;99.90;;;;;;5247478;28;20097;-71
2022/08/03 06:31:30;;;;;;;3.00;2.47;;;25.40;99.90;;;;;;5247584;28;20041;-70
2022/08/03 06:34:04;;;;;;;3.40;2.33;;;25.50;99.90;;;;;;5247622;28;20032;-70
2022/08/03 06:36:35;;;;;;;4.55;2.30;;;25.60;99.90;;;;;;5247448;28;20019;-70
2022/08/03 06:39:06;;;;;;;4.57;2.42;;;25.30;99.90;;;;;;5247574;28;20020;-72
2022/08/03 06:41:37;;;;;;;2.90;2.58;;;25.30;99.90;;;;;;5247588;28;20020;-70
2022/08/03 06:44:08;;;;;;;3.10;2.40;;;25.20;99.90;;;;;;5247422;28;20020;-71
2022/08/03 06:46:39;;;;;;;2.90;2.42;;;25.20;99.90;;;;;;5247358;28;20522;-71
2022/08/03 06:49:10;;;;;;;3.53;2.50;;;25.30;99.90;;;;;;5247177;28;20043;-71
2022/08/03 06:51:41;;;;;;;2.80;2.30;;;25.40;99.90;;;;;;5247434;28;20036;-70
2022/08/03 06:54:11;;;;;;;3.33;2.80;;;25.30;99.90;;;;;;5247402;28;20032;-70
2022/08/03 06:56:42;;;;;;;2.65;2.13;;;25.30;99.90;;;;;;5247197;28;20116;-70
2022/08/03 06:59:13;;;;;;;2.47;2.20;;;25.30;99.90;;;;;;5247432;28;20017;-71
2022/08/03 07:01:44;;;;;;;2.85;2.10;;;25.50;99.90;;;;;;5247302;28;20028;-74
2022/08/03 07:04:15;;;;;;;3.75;2.42;;;26.00;99.90;;;;;;5250617;28;20029;-75
2022/08/03 07:06:45;;;;;;;3.55;2.20;;;25.90;99.90;;;;;;5251385;28;20033;-71
2022/08/03 07:09:16;;;;;;;2.60;1.90;;;26.00;99.90;;;;;;5251360;28;20077;-70
2022/08/03 07:11:47;;;;;;;3.03;2.35;;;25.80;99.90;;;;;;5251395;28;20480;-70
2022/08/03 07:14:18;;;;;;;5.00;3.53;;;25.50;99.90;;;;;;5251350;28;20506;-71
2022/08/03 07:16:48;;;;;;;3.65;2.08;;;25.50;99.90;;;;;;5251204;28;20029;-71
2022/08/03 07:19:19;;;;;;;3.55;1.77;;;25.90;99.90;;;;;;5250962;28;20048;-70
2022/08/03 07:21:50;;;;;;;3.38;2.17;;;25.70;99.90;;;;;;5251117;28;20102;-70
2022/08/03 07:24:21;;;;;;;4.10;2.38;;;25.90;99.90;;;;;;5251016;28;20017;-71
2022/08/03 07:26:52;;;;;;;2.55;1.95;;;26.30;99.90;;;;;;5251015;28;20037;-71
2022/08/03 07:29:23;;;;;;;3.40;2.03;;;26.00;99.90;;;;;;5251016;28;20126;-71
2022/08/03 07:31:53;;;;;;;2.85;1.90;;;26.30;99.90;;;;;;5251053;28;20541;-70
2022/08/03 07:34:24;;;;;;;2.50;2.20;;;26.10;99.90;;;;;;5250771;28;20020;-74
2022/08/03 07:36:56;;;;;;;2.05;1.73;;;25.50;99.90;;;;;;5250823;28;20074;-71
2022/08/03 07:39:26;;;;;;;2.38;1.95;;;25.60;99.90;;;;;;5250680;28;20024;-71
2022/08/03 07:41:57;;;;;;;3.22;2.45;;;25.50;99.90;;;;;;5250733;28;20476;-70
2022/08/03 07:44:28;;;;;;;2.50;1.98;;;25.50;99.90;;;;;;5250709;28;20865;-70
2022/08/03 07:46:59;;;;;;;2.67;1.85;;;25.60;99.90;;;;;;5250437;28;20383;-71
2022/08/03 07:49:30;;;;;;;4.65;2.25;;;25.70;99.90;;;;;;5250421;28;20028;-71
2022/08/03 07:54:50;;;;;;;2.13;1.80;;;26.20;99.90;;;;;;5250722;28;20391;-71
2022/08/03 07:57:20;;;;;;;3.42;1.80;;;26.20;99.90;;;;;;5250370;28;20032;-70
2022/08/03 07:59:51;;;;;;;1.88;1.40;;;25.90;99.90;;;;;;5250356;28;20020;-71
2022/08/03 08:02:22;;;;;;;1.73;1.45;;;26.00;99.90;;;;;;5250267;28;20086;-70
2022/08/03 08:04:53;;;;;;;2.30;1.90;;;25.80;99.90;;;;;;5250242;28;20717;-73
2022/08/03 08:07:24;;;;;;;3.53;2.00;;;26.00;99.90;;;;;;5250338;28;20033;-71
2022/08/03 08:09:56;;;;;;;2.00;1.65;;;26.00;99.90;;;;;;5250112;28;20146;-71
2022/08/03 08:12:27;;;;;;;2.67;1.60;;;26.00;99.90;;;;;;5249957;28;20028;-72
2022/08/03 08:14:58;;;;;;;1.88;1.60;;;26.50;99.90;;;;;;5249373;28;20352;-70
2022/08/03 08:17:28;;;;;;;3.47;1.40;;;26.70;99.90;;;;;;5249834;28;20024;-71
2022/08/03 08:19:59;;;;;;;2.70;1.60;;;27.00;99.90;;;;;;5249927;28;20059;-74
2022/08/03 08:22:30;;;;;;;2.35;1.90;;;26.80;99.90;;;;;;5249843;28;20021;-73
2022/08/03 08:25:01;;;;;;;3.00;2.30;;;26.50;99.90;;;;;;5249939;28;20169;-70
2022/08/03 08:27:31;;;;;;;2.17;1.70;;;26.50;99.90;;;;;;5249657;28;20066;-70
2022/08/03 08:30:04;;;;;;;3.10;1.40;;;26.50;99.90;;;;;;5249853;28;20021;-70
2022/08/03 08:32:36;;;;;;;2.45;1.60;;;26.80;99.90;;;;;;5249738;28;20048;-71
2022/08/03 08:35:08;;;;;;;2.95;2.08;;;26.80;99.90;;;;;;5249714;28;20035;-71
2022/08/03 08:37:40;;;;;;;2.42;1.90;;;27.30;99.90;;;;;;5249731;28;20020;-71
2022/08/03 08:40:12;;;;;;;2.42;2.08;;;26.70;99.90;;;;;;5249895;28;20040;-71
2022/08/03 08:42:44;;;;;;;2.65;2.20;;;26.40;99.90;;;;;;5249794;28;20095;-70
2022/08/03 08:45:15;;;;;;;4.40;2.25;;;26.60;99.90;;;;;;5249775;28;20372;-71
2022/08/03 08:47:48;;;;;;;2.25;1.92;;;26.40;99.90;;;;;;5249462;28;20044;-70
2022/08/03 08:50:21;;;;;;;2.33;1.90;;;26.80;99.90;;;;;;5249443;28;20052;-72
2022/08/03 08:52:52;;;;;;;6.07;2.58;;;26.50;99.90;;;;;;5249438;28;20031;-70
2022/08/03 08:55:24;;;;;;;2.70;2.20;;;26.50;99.90;;;;;;5249386;28;20464;-71
2022/08/03 08:58:08;;;;;;;3.78;2.63;;;26.30;99.90;;;;;;5249472;28;20021;-71
2022/08/03 09:00:39;;;;;;;5.40;2.53;;;26.90;99.90;;;;;;5249305;28;20115;-75
2022/08/03 09:03:11;;;;;;;2.95;2.40;;;27.10;99.90;;;;;;5249175;28;20474;-71
2022/08/03 09:05:42;;;;;;;3.17;2.60;;;26.80;99.90;;;;;;5249181;28;20039;-71
2022/08/03 09:08:13;;;;;;;2.35;2.10;;;26.30;99.90;;;;;;5248964;28;20036;-70
2022/08/03 09:10:44;;;;;;;2.88;2.50;;;26.40;99.90;;;;;;5249039;28;20047;-71
2022/08/03 09:13:15;;;;;;;4.50;2.78;;;27.00;99.90;;;;;;5249056;28;20032;-71
2022/08/03 09:15:46;;;;;;;3.80;2.67;;;27.10;99.90;;;;;;5249012;28;20017;-73
2022/08/03 09:18:29;;;;;;;2.60;2.00;;;27.80;99.90;;;;;;5248595;28;20396;-70
2022/08/03 09:21:24;;;;;;;2.80;1.95;;;27.20;99.90;;;;;;5249004;28;20115;-70
2022/08/03 09:23:56;;;;;;;2.67;2.25;;;26.50;99.90;;;;;;5243844;28;20376;-70
2022/08/03 09:26:29;;;;;;;4.68;2.97;;;26.40;99.90;;;;;;5247569;28;20112;-70
2022/08/03 09:29:05;;;;;;;3.67;2.45;;;26.40;99.90;;;;;;5248707;28;20028;-70
2022/08/03 09:31:38;;;;;;;3.42;2.50;;;26.30;99.90;;;;;;5248544;28;20020;-71
2022/08/03 09:34:13;;;;;;;4.60;2.47;;;26.50;99.90;;;;;;5248490;28;20028;-70
2022/08/03 09:36:48;;;;;;;4.25;2.78;;;26.70;99.90;;;;;;5248423;28;20032;-71
2022/08/03 09:39:26;;;;;;;3.42;2.80;;;26.20;99.90;;;;;;5248509;28;20592;-71
2022/08/03 09:42:13;;;;;;;3.47;2.80;;;26.10;99.90;;;;;;5248277;28;20074;-71
2022/08/03 09:44:46;;;;;;;3.92;2.67;;;26.10;99.90;;;;;;5248252;28;20024;-70
2022/08/03 09:47:36;;;;;;;4.15;3.10;;;25.90;99.90;;;;;;5248015;28;20041;-70
2022/08/03 09:50:08;;;;;;;8.93;3.55;;;25.90;99.90;;;;;;5248384;28;20051;-72
2022/08/03 09:52:40;;;;;;;6.65;4.20;;;25.30;99.90;;;;;;5248252;28;20032;-74
2022/08/03 09:55:13;;;;;;;5.88;4.78;;;24.70;99.90;;;;;;5248193;28;20035;-73
2022/08/03 09:57:45;;;;;;;7.45;3.95;;;24.40;99.90;;;;;;5248103;28;20037;-72
2022/08/03 10:00:16;;;;;;;7.25;4.93;;;24.20;99.90;;;;;;5247986;28;20078;-72
2022/08/03 10:02:49;;;;;;;6.32;4.80;;;24.20;99.90;;;;;;5248015;28;20423;-73
2022/08/03 10:05:31;;;;;;;6.32;5.07;;;23.90;99.90;;;;;;5247997;28;20419;-72
2022/08/03 10:08:14;;;;;;;7.70;4.90;;;23.90;99.90;;;;;;5247652;28;20480;-73
2022/08/03 10:10:47;;;;;;;6.50;5.35;;;23.80;99.90;;;;;;5247885;28;20414;-72
2022/08/03 10:13:19;;;;;;;6.40;4.88;;;23.90;99.90;;;;;;5247791;28;20418;-72
2022/08/03 10:15:50;;;;;;;7.10;5.25;;;23.90;99.90;;;;;;5247783;28;20079;-73
2022/08/03 10:18:20;;;;;;;8.75;5.35;;;23.90;99.90;;;;;;5247365;28;20048;-72
2022/08/03 10:20:54;;;;;;;5.75;4.88;;;24.10;99.90;;;;;;5247727;28;20521;-77
2022/08/03 10:23:25;;;;;;;7.13;5.47;;;24.10;99.90;;;;;;5247583;28;20020;-72
2022/08/03 10:26:03;;;;;;;8.10;5.28;;;24.00;99.90;;;;;;5247526;28;20025;-78
2022/08/03 10:28:38;;;;;;;6.20;5.60;;;24.00;99.90;;;;;;5247424;28;20048;-73
2022/08/03 10:31:10;;;;;;;6.13;5.22;;;24.20;99.90;;;;;;5247479;28;20031;-73
2022/08/03 10:33:44;;;;;;;7.95;5.50;;;24.20;99.90;;;;;;5247518;28;20029;-73
2022/08/03 10:36:17;;;;;;;5.80;4.85;;;25.10;99.90;;;;;;5247501;28;20021;-72
2022/08/03 10:38:51;;;;;;;6.13;4.65;;;25.70;99.90;;;;;;5245965;28;20540;-74
2022/08/03 10:41:31;;;;;;;5.70;4.50;;;25.90;99.90;;;;;;5247563;28;20069;-80
2022/08/03 10:44:06;;;;;;;5.97;4.10;;;25.70;99.90;;;;;;5247333;28;20024;-74
2022/08/03 10:46:39;;;;;;;5.80;4.05;;;26.30;99.90;;;;;;5247217;28;20029;-74
2022/08/03 10:49:29;;;;;;;6.00;3.35;;;25.90;99.90;;;;;;5247536;28;20612;-77
2022/08/03 10:52:01;;;;;;;4.15;3.50;;;26.30;99.90;;;;;;5247151;28;20125;-77
2022/08/03 10:57:53;;;;;;;4.15;3.25;;;25.70;99.90;;;;;;5234831;28;20036;-79
2022/08/03 11:00:28;;;;;;;5.40;3.25;;;25.20;99.90;;;;;;5247153;28;20072;-79
2022/08/03 11:03:05;;;;;;;4.75;3.03;;;24.90;99.90;;;;;;5247203;28;20017;-74
2022/08/03 11:05:53;;;;;;;5.35;3.67;;;25.10;99.90;;;;;;5247248;28;20064;-79
2022/08/03 11:08:29;;;;;;;4.00;3.50;;;25.00;99.90;;;;;;5246968;28;20036;-77
2022/08/03 11:11:17;;;;;;;5.20;3.72;;;25.00;99.90;;;;;;5247076;28;20025;-78
2022/08/03 11:14:03;;;;;;;6.07;3.42;;;25.00;99.90;;;;;;5247336;28;20533;-80
2022/08/03 11:16:37;;;;;;;3.97;3.58;;;25.40;99.90;;;;;;5247292;28;20099;-76
2022/08/03 11:19:11;;;;;;;5.30;3.40;;;25.00;99.90;;;;;;5246702;28;20040;-80
2022/08/03 11:21:50;;;;;;;5.88;3.80;;;24.80;99.90;;;;;;5247081;28;20122;-75
2022/08/03 11:24:38;;;;;;;4.93;3.60;;;25.00;99.90;;;;;;5247040;28;20016;-79
2022/08/03 11:27:18;;;;;;;5.35;3.88;;;25.00;99.90;;;;;;5246930;28;20029;-79
2022/08/03 11:30:18;;;;;;;3.70;3.25;;;25.10;99.90;;;;;;5246925;28;20033;-74
2022/08/03 11:32:50;;;;;;;;;;;25.60;99.90;;;;;;5247385;28;20029;-79
2022/08/03 11:35:35;;;;;;;3.08;2.78;;;25.70;99.90;;;;;;5247229;28;19904;-80
2022/08/03 11:38:07;;;;;;;3.63;2.70;;;25.40;99.90;;;;;;5247189;28;20460;-78
2022/08/03 11:40:46;;;;;;;2.90;2.60;;;25.60;99.90;;;;;;5247155;28;20104;-74
2022/08/03 11:43:28;;;;;;;2.88;2.53;;;25.60;99.90;;;;;;5247247;28;20492;-77
2022/08/03 11:46:04;;;;;;;3.45;2.70;;;25.40;99.90;;;;;;5246110;28;20037;-76
2022/08/03 11:48:44;;;;;;;4.75;3.22;;;26.10;99.90;;;;;;5246782;28;20040;-79
2022/08/03 11:51:30;;;;;;;3.88;2.92;;;26.80;99.90;;;;;;5249957;28;20391;-80
2022/08/03 11:54:04;;;;;;;3.90;2.67;;;26.70;99.90;;;;;;5250682;28;20334;-79
2022/08/03 11:56:48;;;;;;;3.63;2.90;;;26.30;99.90;;;;;;5250601;28;20062;-74
2022/08/03 11:59:34;;;;;;;3.30;2.92;;;26.50;99.90;;;;;;5250677;28;20086;-78
2022/08/03 12:02:15;;;;;;;4.10;3.05;;;27.10;99.90;;;;;;5250714;28;20028;-72
2022/08/03 12:05:04;;;;;;;3.92;2.95;;;27.40;99.90;;;;;;5250627;28;20029;-78
2022/08/03 12:07:45;;;;;;;4.30;2.88;;;26.50;99.90;;;;;;5250251;28;20434;-77
2022/08/03 12:10:16;;;;;;;4.22;3.13;;;25.80;99.90;;;;;;5250506;28;20128;-78
2022/08/03 12:12:55;;;;;;;3.90;2.83;;;25.90;99.90;;;;;;5250511;28;20103;-74
2022/08/03 12:15:29;;;;;;;3.95;2.90;;;25.80;99.90;;;;;;5250241;28;20412;-78
2022/08/03 12:18:01;;;;;;;3.22;2.72;;;25.90;99.90;;;;;;5249929;28;20036;-73
2022/08/03 12:20:32;;;;;;;3.42;2.90;;;26.20;99.90;;;;;;5250245;28;20044;-77
2022/08/03 12:23:07;;;;;;;3.33;2.55;;;26.00;99.90;;;;;;5250375;28;20334;-78
2022/08/03 12:25:39;;;;;;;5.10;3.38;;;25.60;99.90;;;;;;5249910;28;20024;-80
2022/08/03 12:28:21;;;;;;;3.83;2.75;;;25.30;99.90;;;;;;5248535;28;20134;-74
2022/08/03 12:30:52;;;;;;;4.30;3.58;;;25.00;99.90;;;;;;5249997;28;20089;-73
2022/08/03 12:33:25;;;;;;;4.35;3.67;;;24.70;99.90;;;;;;5249793;28;20051;-78
2022/08/03 12:36:09;;;;;;;4.75;3.55;;;24.60;99.90;;;;;;5249932;28;20472;-75
2022/08/03 12:38:41;;;;;;;5.03;3.35;;;24.70;99.90;;;;;;5249851;28;20031;-78
2022/08/03 12:41:14;;;;;;;4.63;3.30;;;24.90;99.90;;;;;;5249751;28;20078;-73
2022/08/03 12:43:48;;;;;;;4.57;2.67;;;25.00;99.90;;;;;;5249753;28;20033;-72
2022/08/03 12:46:19;;;;;;;5.80;3.25;;;25.70;99.90;;;;;;5249733;28;20055;-78
2022/08/03 12:49:18;;;;;;;3.03;2.63;;;25.90;99.90;;;;;;5249142;28;20146;-79
2022/08/03 13:05:15;;;;;;;4.15;2.78;;;26.10;99.90;;;;;;5308524;27;20397;-76
2022/08/03 13:07:46;;;;;;;3.15;2.55;;;25.60;99.90;;;;;;5308563;28;20023;-76
2022/08/03 13:10:31;;;;;;;3.42;2.15;;;26.30;99.90;;;;;;5308600;28;20046;-75
2022/08/03 13:13:03;;;;;;;3.03;2.20;;;26.50;99.90;;;;;;5308257;28;20039;-75
2022/08/03 13:15:34;;;;;;;7.57;3.08;;;26.50;99.90;;;;;;5308333;28;20019;-76
2022/08/03 13:18:05;;;;;;;3.05;2.75;;;26.70;99.90;;;;;;5308175;28;20031;-76
2022/08/03 13:20:35;;;;;;;3.03;2.65;;;26.10;99.90;;;;;;5308407;27;20022;-76
2022/08/03 13:23:06;;;;;;;3.13;2.47;;;25.70;99.90;;;;;;5308375;28;20390;-75
2022/08/03 13:25:37;;;;;;;3.05;2.33;;;26.10;99.90;;;;;;5308421;28;20027;-75
2022/08/03 13:28:08;;;;;;;2.40;2.15;;;26.60;99.90;;;;;;5308160;27;20088;-76
2022/08/03 13:30:39;;;;;;;3.92;2.50;;;26.60;99.90;;;;;;5308026;27;20068;-75
2022/08/03 13:33:10;;;;;;;3.65;2.80;;;27.10;99.90;;;;;;5307767;28;20410;-75
2022/08/03 13:35:40;;;;;;;4.38;2.40;;;26.70;99.90;;;;;;5307926;27;20076;-76
2022/08/03 13:38:11;;;;;;;2.80;2.20;;;26.20;99.90;;;;;;5308279;27;20049;-75
2022/08/03 13:40:42;;;;;;;3.33;2.38;;;26.10;99.90;;;;;;5307894;27;20094;-75
2022/08/03 13:43:13;;;;;;;3.10;2.40;;;27.10;99.90;;;;;;5307995;28;20020;-76
2022/08/03 13:45:44;;;;;;;2.47;2.08;;;27.60;99.90;;;;;;5307670;27;20015;-75
2022/08/03 13:48:14;;;;;;;2.20;1.95;;;27.60;99.90;;;;;;5307930;27;20026;-76